Anna Maria, Florida
Current Conditions -  °F | °C
As of 3:53 AM on Tuesday 21 Oct 2014 (Local Time) from KSRQ Reporting Station
Clear Clear  
Wind Chill: 71°   Ceiling: Unl
Heat Index: 71°   Visibility: 10mi
Dew Point: 65°   Wind: 0mph
Humidity: 81%   Direction: NA
Pressure: 29.91"   Gusts: NA
Location:  27.53°N, 82.73°W
Report Text: KSRQ 210753Z 00000KT 10SM CLR 22/18 A2991 RMK AO2 SLP127 T02170183
Loading
Personal Weather Stations






























Interactive Weather Map
Tropical Storm Tracking
New forecast layout! Learn more

10-Day Weather Forecast

Advertisements
Track Severe Weather on mobile